Portada
METAR-TAF:

METAR-TAF

Aeroports :

Almeria, Espanya

latitud: 36-51N, longitud: 002-23W, altitud: 15 m

Observació

L'informe es va fer fa 23 minuts, a les 17:00 UTC
Vent 2 kt amb direcció variable
Temperatura 17°C
Humitat 82%
Pressió 1018 hPa
Visibilitat 10 km o més
sense núvols per sota de 1500 mi sense presència de cumulonimbus.

METAR: LEAM 261700Z VRB02KT CAVOK 17/14 Q1018

Hora: 18:23 (17:23 UTC)

Pronòstic

L'informe es va fer fa 3 hores i 23 minuts, a les 14:00 UTC
Pronòstic vàlid del 26 a les 15 UTC al 27 a les 15 UTC
Vent 8 kt del Sud/Sud-Oest
Visibilitat 10 km o més
sense núvols per sota de 1500 mi sense presència de cumulonimbus.
Evolucionant progressivament
l' 26 a les 20 UTC al 26 a les 23 UTC
Vent 10 kt del Nord/Nord-Oest
Evolucionant progressivament
l' 27 a les 08 UTC al 27 a les 11 UTC
Vent 8 kt del Sud/Sud-Oest

TAF: LEAM 261400Z 2615/2715 21008KT CAVOK TX20/2712Z TN10/2706Z BECMG 2620/2623 34010KT BECMG 2708/2711 20008KT

Observacions i pronòstics meteorològics de més de 4000 aeroports (METAR i TAF).

Les estacions disponibles són els punts grocs i vermells al mapa.

Posi el ratolí al punt desitjat per veure el nom de l'estació.

Feu clic per veure les observacions i els pronòstics meteorològics.

Per canviar el mapa: feu clic els botons verds amb una creu de color negre per apropar; al botó verd amb un guió per allunyar la imatge; o en les fletxes verdes per a mapes adjacents.


METAR-TAF: